• Join FlightAware (Why Join?)
  • Login
  • US Flag 
03:00AM EDT


 

Airport Tracker/Info


-or-


 

Live Flight TrackerFlight Track Log ✈ CES2232 ✈ 03-Oct-2013 ✈ ZUJZ / JZH - ZLXY / XIY

Flight Track Log - Related Links

Times and Time Zones

All times are in EDT time to prevent confusion due to time zone crossing. See the CES2232 flight status page for this flight to view local times or setup timezone preferences in your user account.

Time Position Orientation Groundspeed Altitude Reporting Facility
EDT Latitude Longitude Course Direction KTS MPH feet Rate Location/Type
08:41AM 33.5425 105.7654 68° East  Level Estimated
08:42AM 33.5728 105.8608 69° East  Level Estimated
08:43AM 33.6031 105.9563 69° East  Level Estimated
08:44AM 33.6333 106.0519 69° East  Level Estimated
08:45AM 33.6634 106.1475 69° East  Level Estimated
08:46AM 33.6934 106.2432 69° East  Level Estimated
08:47AM 33.7234 106.3389 69° East  Level Estimated
08:48AM 33.7532 106.4348 69° East  Level Estimated
08:49AM 33.7831 106.5307 69° East  Level Estimated
08:50AM 33.8128 106.6266 70° East  Level Estimated
08:51AM 33.8424 106.7227 70° East  Level Estimated
08:52AM 33.8720 106.8188 70° East  Level Estimated
08:53AM 33.9016 106.9149 70° East  Level Estimated
08:54AM 33.9310 107.0111 70° East  Level Estimated
08:55AM 33.9604 107.1074 70° East  Level Estimated
08:56AM 33.9897 107.2038 70° East  Level Estimated
08:57AM 34.0189 107.3002 70° East  Level Estimated
08:58AM 34.0480 107.3967 70° East  Level Estimated
08:59AM 34.0771 107.4933 70° East  Level Estimated
09:00AM 34.1060 107.5899 70° East  Level Estimated
09:01AM 34.1350 107.6866 70° East  Level Estimated
09:02AM 34.1638 107.7834 70° East  Level Estimated
09:03AM 34.1926 107.8802 70° East  Level Estimated
09:04AM 34.2212 107.9771 70° East  Level Estimated
09:05AM 34.2499 108.0740 70° East  Level Estimated
09:06AM 34.2784 108.1711 70° East  Level Estimated
09:07AM 34.3074 108.2700 70° East  Level Estimated
09:08AM 34.3363 108.3690 70° East  Level Estimated
09:09AM 34.3652 108.4681 71° East  Level Estimated
09:10AM 34.3939 108.5673 71° East  Level Estimated
09:11AM 34.4226 108.6665 71° East  Level Estimated
09:12AM 34.4471 108.7516 71° East  Level Estimated
09:13AM 34.4471 108.7516 121° Southeast  Level Estimated
09:14AM 34.4471 108.7516 121° Southeast  Level Estimated
09:15AM 34.4471 108.7516 121° Southeast  Level Estimated
09:16AM 34.4471 108.7516 121° Southeast  Level Estimated
09:17AM 34.4471 108.7516 121° Southeast  Level Estimated
09:18AM 34.4471 108.7516 121° Southeast  Level Estimated
09:19AM 34.4471 108.7516 121° Southeast  Level Estimated
09:20AM 34.4471 108.7516 121° Southeast  Level Estimated
09:21AM 34.4471 108.7516 121° Southeast  Level Estimated
09:22AM 34.4471 108.7516 121° Southeast  Level Estimated
09:23AM 34.4471 108.7516 121° Southeast  Level Estimated
09:24AM 34.4471 108.7516 121° Southeast  Level Estimated
09:25AM 34.4471 108.7516 121° Southeast  Level Estimated
09:26AM 34.4471 108.7516 121° Southeast  Level Estimated
09:27AM 34.4471 108.7516 121° Southeast  Level Estimated
09:28AM 34.4471 108.7516 121° Southeast  Level Estimated
09:29AM 34.4471 108.7516 121° Southeast  Level Estimated
09:30AM 34.4471 108.7516 121° Southeast  Level Estimated
09:31AM 34.4471 108.7516 121° Southeast  Level Estimated
09:32AM 34.4471 108.7516 121° Southeast  Level Estimated
09:33AM 34.4471 108.7516 121° Southeast  Level Estimated
09:34AM 34.4471 108.7516 121° Southeast  Level Estimated
09:35AM 34.4471 108.7516 121° Southeast  Level Estimated